Time;durP1;ratioP1;P1;durP2;ratioP2;P2;SDS_P1;SDS_P2;PMS_P1;PMS_P2;Temp;Humidity;BMP_temperature;BMP_pressure;BME280_temperature;BME280_humidity;BME280_pressure;Samples;Min_cycle;Max_cycle;Signal;HPM_P1;HPM_P2
2021/08/28 00:00:07;;;;;;;4.80;2.38;;;14.20;99.90;;;;;;5054388;28;20044;-64
2021/08/28 00:02:33;;;;;;;5.15;2.55;;;14.20;99.90;;;;;;5055075;28;20560;-64
2021/08/28 00:04:59;;;;;;;6.97;2.38;;;14.20;99.90;;;;;;5054512;28;20064;-64
2021/08/28 00:07:25;;;;;;;2.58;2.00;;;14.20;99.90;;;;;;5054459;28;20458;-64
2021/08/28 00:09:50;;;;;;;4.80;2.40;;;14.20;99.90;;;;;;5052986;28;20115;-63
2021/08/28 00:12:16;;;;;;;4.72;2.20;;;14.20;99.90;;;;;;5052130;28;20502;-64
2021/08/28 00:14:42;;;;;;;4.85;1.85;;;14.20;99.90;;;;;;5054283;28;20032;-64
2021/08/28 00:17:08;;;;;;;4.07;2.30;;;14.10;99.90;;;;;;5053476;28;20045;-64
2021/08/28 00:19:33;;;;;;;4.05;2.13;;;14.10;99.90;;;;;;5053865;28;20025;-65
2021/08/28 00:21:59;;;;;;;5.65;2.47;;;14.10;99.90;;;;;;5053955;28;20017;-64
2021/08/28 00:24:25;;;;;;;5.07;2.63;;;14.10;99.90;;;;;;5052744;28;20032;-64
2021/08/28 00:26:50;;;;;;;5.00;2.33;;;14.10;99.90;;;;;;5054406;28;20041;-64
2021/08/28 00:29:16;;;;;;;5.10;2.90;;;14.10;99.90;;;;;;5053744;28;20028;-64
2021/08/28 00:31:43;;;;;;;3.35;2.10;;;14.10;99.90;;;;;;5054282;28;20029;-64
2021/08/28 00:34:09;;;;;;;2.90;1.98;;;14.10;99.90;;;;;;5053943;28;20452;-64
2021/08/28 00:36:35;;;;;;;3.15;2.25;;;14.10;99.90;;;;;;5054509;28;20039;-64
2021/08/28 00:39:01;;;;;;;2.65;1.65;;;14.10;99.90;;;;;;5052854;28;20112;-65
2021/08/28 00:41:27;;;;;;;4.40;2.15;;;14.00;99.90;;;;;;5053258;28;20060;-64
2021/08/28 00:43:53;;;;;;;4.90;2.25;;;14.00;99.90;;;;;;5053277;28;20040;-64
2021/08/28 00:46:19;;;;;;;7.63;2.17;;;14.10;99.90;;;;;;5051637;28;20116;-64
2021/08/28 00:48:45;;;;;;;4.20;2.67;;;14.10;99.90;;;;;;5052992;28;20029;-64
2021/08/28 00:51:11;;;;;;;5.95;2.42;;;14.20;99.90;;;;;;5052846;28;20466;-64
2021/08/28 00:53:37;;;;;;;5.25;1.92;;;14.20;99.90;;;;;;5053380;28;20056;-63
2021/08/28 00:56:03;;;;;;;5.90;2.53;;;14.10;99.90;;;;;;5052853;28;20029;-64
2021/08/28 00:58:29;;;;;;;4.05;2.03;;;14.10;99.90;;;;;;5053226;28;20037;-64
2021/08/28 01:01:03;;;;;;;2.85;2.05;;;14.00;99.90;;;;;;5053304;28;20036;-63
2021/08/28 01:03:32;;;;;;;2.85;2.05;;;14.00;99.90;;;;;;5053606;28;20028;-64
2021/08/28 01:06:14;;;;;;;2.42;1.75;;;14.00;99.90;;;;;;5053280;28;20367;-64
2021/08/28 01:08:53;;;;;;;4.50;2.10;;;13.90;99.90;;;;;;5053773;28;20111;-64
2021/08/28 01:11:18;;;;;;;5.25;2.38;;;13.90;99.90;;;;;;5051257;28;20032;-64
2021/08/28 01:13:49;;;;;;;8.70;2.28;;;14.00;99.90;;;;;;5052964;28;20033;-64
2021/08/28 01:16:17;;;;;;;3.95;1.63;;;14.00;99.90;;;;;;5051182;28;20021;-63
2021/08/28 01:18:45;;;;;;;4.70;2.17;;;13.90;99.90;;;;;;5052893;28;20382;-63
2021/08/28 01:21:23;;;;;;;2.67;1.67;;;13.90;99.90;;;;;;5052091;28;20476;-64
2021/08/28 01:23:50;;;;;;;5.70;2.60;;;13.90;99.90;;;;;;5053057;28;20029;-63
2021/08/28 01:26:20;;;;;;;3.80;1.80;;;13.90;99.90;;;;;;5051521;28;20098;-64
2021/08/28 01:28:58;;;;;;;4.18;2.13;;;13.90;99.90;;;;;;5052397;28;20028;-64
2021/08/28 01:31:25;;;;;;;5.18;2.17;;;13.90;99.90;;;;;;5051396;28;20025;-64
2021/08/28 01:33:52;;;;;;;5.65;2.45;;;13.90;99.90;;;;;;5052886;28;20033;-64
2021/08/28 01:36:19;;;;;;;8.73;3.50;;;13.90;99.90;;;;;;5052146;28;20037;-63
2021/08/28 01:38:45;;;;;;;3.92;2.20;;;14.00;99.90;;;;;;5052545;28;20032;-65
2021/08/28 01:41:11;;;;;;;3.88;2.40;;;13.90;99.90;;;;;;5051134;28;20049;-64
2021/08/28 01:43:38;;;;;;;3.78;2.50;;;13.90;99.90;;;;;;5052732;28;20032;-63
2021/08/28 01:46:04;;;;;;;4.15;1.90;;;13.90;99.90;;;;;;5051715;28;20033;-64
2021/08/28 01:48:32;;;;;;;4.70;2.67;;;13.90;99.90;;;;;;5052510;28;20031;-64
2021/08/28 01:50:58;;;;;;;4.03;2.60;;;13.90;99.90;;;;;;5052583;28;20028;-63
2021/08/28 01:53:24;;;;;;;4.10;2.65;;;13.90;99.90;;;;;;5050547;28;20814;-64
2021/08/28 01:55:50;;;;;;;5.30;2.33;;;13.90;99.90;;;;;;5052377;28;20025;-63
2021/08/28 01:58:15;;;;;;;3.25;2.70;;;13.90;99.90;;;;;;5051150;28;20374;-63
2021/08/28 02:00:41;;;;;;;4.88;2.60;;;13.90;99.90;;;;;;5051804;28;20486;-63
2021/08/28 02:03:06;;;;;;;4.57;2.65;;;13.90;99.90;;;;;;5051747;28;20054;-63
2021/08/28 02:05:39;;;;;;;4.57;2.40;;;13.90;99.90;;;;;;5052410;28;20102;-63
2021/08/28 02:08:09;;;;;;;5.07;2.50;;;13.90;99.90;;;;;;5051629;28;20032;-63
2021/08/28 02:10:44;;;;;;;5.13;3.72;;;13.90;99.90;;;;;;5052111;28;20025;-63
2021/08/28 02:13:35;;;;;;;5.82;4.07;;;13.90;99.90;;;;;;5052116;28;20489;-64
2021/08/28 02:16:25;;;;;;;5.25;3.75;;;13.90;99.90;;;;;;5049542;28;20041;-65
2021/08/28 02:19:01;;;;;;;6.60;4.27;;;13.90;99.90;;;;;;5052491;28;20112;-64
2021/08/28 02:21:30;;;;;;;7.68;4.65;;;13.90;99.90;;;;;;5052672;28;20029;-64
2021/08/28 02:24:04;;;;;;;7.53;4.53;;;13.90;99.90;;;;;;5050815;28;20490;-64
2021/08/28 02:26:55;;;;;;;5.15;4.00;;;13.80;99.90;;;;;;5051258;28;20425;-64
2021/08/28 02:29:52;;;;;;;6.63;4.53;;;13.90;99.90;;;;;;5050673;28;20041;-64
2021/08/28 02:32:20;;;;;;;8.40;5.30;;;13.90;99.90;;;;;;5050962;28;20040;-64
2021/08/28 02:34:47;;;;;;;7.50;5.63;;;13.80;99.90;;;;;;5051935;28;20451;-64
2021/08/28 02:37:15;;;;;;;9.23;5.93;;;13.80;99.90;;;;;;5051630;28;20041;-64
2021/08/28 02:39:42;;;;;;;8.90;6.20;;;13.80;99.90;;;;;;5051528;28;20037;-64
2021/08/28 02:42:10;;;;;;;9.63;6.65;;;13.80;99.90;;;;;;5051217;28;20064;-65
2021/08/28 02:44:39;;;;;;;10.35;5.68;;;13.80;99.90;;;;;;5051654;28;20032;-64
2021/08/28 02:47:06;;;;;;;5.85;5.05;;;13.70;99.90;;;;;;5051403;28;20029;-65
2021/08/28 02:49:34;;;;;;;8.60;5.28;;;13.70;99.90;;;;;;5051796;28;20032;-64
2021/08/28 02:52:03;;;;;;;11.43;8.10;;;13.70;99.90;;;;;;5051750;28;20470;-64
2021/08/28 02:54:30;;;;;;;9.82;7.28;;;13.80;99.90;;;;;;5051590;28;20036;-64
2021/08/28 02:56:57;;;;;;;11.65;7.20;;;13.70;99.90;;;;;;5051060;28;20112;-64
2021/08/28 02:59:24;;;;;;;10.73;6.55;;;13.70;99.90;;;;;;5050467;28;20493;-64
2021/08/28 03:01:50;;;;;;;8.75;6.45;;;13.70;99.90;;;;;;5051315;28;20485;-64
2021/08/28 03:04:19;;;;;;;8.77;7.75;;;13.70;99.90;;;;;;5050614;28;20083;-65
2021/08/28 03:06:46;;;;;;;13.65;7.68;;;13.70;99.90;;;;;;5051447;28;20079;-64
2021/08/28 03:09:12;;;;;;;11.35;7.35;;;13.70;99.90;;;;;;5052445;28;20068;-64
2021/08/28 03:11:38;;;;;;;12.65;9.63;;;13.60;99.90;;;;;;5055241;28;20037;-64
2021/08/28 03:14:05;;;;;;;11.85;9.43;;;13.60;99.90;;;;;;5054732;28;20033;-65
2021/08/28 03:16:31;;;;;;;14.45;10.30;;;13.70;99.90;;;;;;5055303;28;20470;-64
2021/08/28 03:18:58;;;;;;;17.20;10.32;;;13.60;99.90;;;;;;5055855;28;20056;-64
2021/08/28 03:21:27;;;;;;;10.15;9.15;;;13.60;99.90;;;;;;5054704;28;20092;-64
2021/08/28 03:23:56;;;;;;;14.80;10.52;;;13.60;99.90;;;;;;5055487;28;20021;-64
2021/08/28 03:26:23;;;;;;;14.73;10.93;;;13.60;99.90;;;;;;5054540;28;20037;-64
2021/08/28 03:28:51;;;;;;;14.10;10.63;;;13.60;99.90;;;;;;5054137;28;20021;-64
2021/08/28 03:31:17;;;;;;;17.90;12.52;;;13.60;99.90;;;;;;5053411;28;20086;-64
2021/08/28 03:33:47;;;;;;;15.50;11.45;;;13.50;99.90;;;;;;5053568;28;20056;-64
2021/08/28 03:36:15;;;;;;;18.92;13.55;;;13.50;99.90;;;;;;5054360;28;20032;-64
2021/08/28 03:38:41;;;;;;;17.63;13.40;;;13.60;99.90;;;;;;5055254;28;20056;-64
2021/08/28 03:41:09;;;;;;;14.10;11.60;;;13.60;99.90;;;;;;5053045;28;20053;-65
2021/08/28 03:43:35;;;;;;;15.57;11.55;;;13.50;99.90;;;;;;5054994;28;20033;-64
2021/08/28 03:46:01;;;;;;;17.02;13.57;;;13.50;99.90;;;;;;5055220;28;20037;-64
2021/08/28 03:48:29;;;;;;;17.83;12.93;;;13.50;99.90;;;;;;5054295;28;20032;-64
2021/08/28 03:50:55;;;;;;;15.95;12.00;;;13.50;99.90;;;;;;5054933;28;20036;-64
2021/08/28 03:53:21;;;;;;;17.38;13.80;;;13.50;99.90;;;;;;5054380;28;20405;-64
2021/08/28 03:55:46;;;;;;;16.17;12.38;;;13.60;99.90;;;;;;5054533;28;20087;-64
2021/08/28 03:58:12;;;;;;;15.20;13.15;;;13.50;99.90;;;;;;5053825;28;20028;-64
2021/08/28 04:00:37;;;;;;;17.17;12.18;;;13.50;99.90;;;;;;5054407;28;20071;-65
2021/08/28 04:03:03;;;;;;;16.98;13.77;;;13.40;99.90;;;;;;5054398;28;20056;-64
2021/08/28 04:05:29;;;;;;;16.67;12.68;;;13.50;99.90;;;;;;5053212;28;20033;-64
2021/08/28 04:07:54;;;;;;;18.50;15.02;;;13.40;99.90;;;;;;5053774;28;20025;-64
2021/08/28 04:10:20;;;;;;;19.17;14.07;;;13.40;99.90;;;;;;5052983;28;20065;-64
2021/08/28 04:12:46;;;;;;;13.95;12.15;;;13.40;99.90;;;;;;5054535;28;20468;-65
2021/08/28 04:15:11;;;;;;;19.33;14.50;;;13.40;99.90;;;;;;5054655;28;20037;-64
2021/08/28 04:17:37;;;;;;;19.45;14.98;;;13.50;99.90;;;;;;5054796;28;20113;-65
2021/08/28 04:20:04;;;;;;;18.42;14.10;;;13.50;99.90;;;;;;5054463;28;20037;-64
2021/08/28 04:22:30;;;;;;;20.25;14.13;;;13.40;99.90;;;;;;5053770;28;20470;-64
2021/08/28 04:24:56;;;;;;;18.85;15.40;;;13.40;99.90;;;;;;5054072;28;20497;-64
2021/08/28 04:27:21;;;;;;;21.88;16.13;;;13.40;99.90;;;;;;5052307;28;20036;-64
2021/08/28 04:29:47;;;;;;;20.25;15.48;;;13.50;99.90;;;;;;5053680;28;20029;-65
2021/08/28 04:32:12;;;;;;;18.48;15.77;;;13.50;99.90;;;;;;5052797;28;20033;-64
2021/08/28 04:34:38;;;;;;;22.23;17.45;;;13.40;99.90;;;;;;5053579;28;20025;-64
2021/08/28 04:37:04;;;;;;;21.38;16.95;;;13.40;99.90;;;;;;5053868;28;20113;-64
2021/08/28 04:39:29;;;;;;;19.67;15.15;;;13.30;99.90;;;;;;5053271;28;20033;-64
2021/08/28 04:41:55;;;;;;;19.70;16.50;;;13.30;99.90;;;;;;5054203;28;20056;-64
2021/08/28 04:44:20;;;;;;;19.83;15.98;;;13.30;99.90;;;;;;5053591;28;20025;-63
2021/08/28 04:46:46;;;;;;;21.83;15.57;;;13.30;99.90;;;;;;5052676;28;20041;-64
2021/08/28 04:49:12;;;;;;;20.92;15.93;;;13.30;99.90;;;;;;5053621;28;20060;-64
2021/08/28 04:51:39;;;;;;;17.98;15.07;;;13.30;99.90;;;;;;5054047;28;20452;-64
2021/08/28 04:54:04;;;;;;;21.67;15.23;;;13.30;99.90;;;;;;5054089;28;20100;-64
2021/08/28 04:56:30;;;;;;;17.92;15.90;;;13.30;99.90;;;;;;5053474;28;20538;-64
2021/08/28 04:58:56;;;;;;;18.42;14.07;;;13.30;99.90;;;;;;5053944;28;20470;-64
2021/08/28 05:01:21;;;;;;;20.52;16.63;;;13.30;99.90;;;;;;5052583;28;20025;-64
2021/08/28 05:03:47;;;;;;;17.05;14.40;;;13.30;99.90;;;;;;5053522;28;20037;-64
2021/08/28 05:06:13;;;;;;;21.65;16.00;;;13.30;99.90;;;;;;5052943;28;20040;-64
2021/08/28 05:08:38;;;;;;;22.17;18.98;;;13.40;99.90;;;;;;5053476;28;20446;-64
2021/08/28 05:11:04;;;;;;;21.25;17.88;;;13.40;99.90;;;;;;5053639;28;20071;-64
2021/08/28 05:13:30;;;;;;;26.23;18.90;;;13.60;99.90;;;;;;5052513;28;20214;-64
2021/08/28 05:15:55;;;;;;;24.67;17.60;;;13.60;99.90;;;;;;5051923;28;20378;-64
2021/08/28 05:18:21;;;;;;;24.60;18.40;;;13.60;99.90;;;;;;5052433;28;20025;-64
2021/08/28 05:20:47;;;;;;;20.05;17.42;;;13.60;99.90;;;;;;5052982;28;20038;-64
2021/08/28 05:23:13;;;;;;;21.63;17.08;;;13.60;99.90;;;;;;5051556;28;20029;-65
2021/08/28 05:25:38;;;;;;;24.17;17.10;;;13.60;99.90;;;;;;5052739;28;20032;-64
2021/08/28 05:28:04;;;;;;;20.10;17.00;;;13.60;99.90;;;;;;5052703;28;20017;-64
2021/08/28 05:30:30;;;;;;;19.55;16.90;;;13.60;99.90;;;;;;5051211;28;20589;-64
2021/08/28 05:32:55;;;;;;;22.77;16.17;;;13.60;99.90;;;;;;5051435;28;20017;-64
2021/08/28 05:35:21;;;;;;;25.77;18.10;;;13.60;99.90;;;;;;5052187;28;20023;-65
2021/08/28 05:37:47;;;;;;;23.17;15.48;;;13.70;99.90;;;;;;5052686;28;20033;-64
2021/08/28 05:40:13;;;;;;;22.48;15.90;;;13.70;99.90;;;;;;5051607;28;20057;-64
2021/08/28 05:42:40;;;;;;;21.60;15.75;;;13.80;99.90;;;;;;5051572;28;20386;-64
2021/08/28 05:45:06;;;;;;;21.13;15.43;;;13.80;99.90;;;;;;5052439;28;20547;-64
2021/08/28 05:47:32;;;;;;;18.90;14.88;;;13.90;99.90;;;;;;5051554;28;20040;-64
2021/08/28 05:49:58;;;;;;;21.75;15.73;;;13.90;99.90;;;;;;5052281;28;20112;-64
2021/08/28 05:52:23;;;;;;;17.85;15.23;;;14.00;99.90;;;;;;5051610;28;20063;-64
2021/08/28 05:54:49;;;;;;;20.00;15.30;;;14.10;99.90;;;;;;5052556;28;20108;-64
2021/08/28 05:57:15;;;;;;;15.90;13.60;;;14.10;99.90;;;;;;5051582;28;20472;-64
2021/08/28 05:59:41;;;;;;;17.30;12.93;;;14.10;99.90;;;;;;5052642;28;20366;-64
2021/08/28 06:02:07;;;;;;;17.27;14.88;;;14.00;99.90;;;;;;5051873;28;20048;-64
2021/08/28 06:04:32;;;;;;;15.73;13.57;;;14.10;99.90;;;;;;5051282;28;20118;-63
2021/08/28 06:06:59;;;;;;;16.83;14.57;;;14.10;99.90;;;;;;5051881;28;20430;-64
2021/08/28 06:09:25;;;;;;;18.05;13.30;;;14.10;99.90;;;;;;5051446;28;20036;-64
2021/08/28 06:11:50;;;;;;;16.33;13.98;;;14.00;99.90;;;;;;5052182;28;20467;-64
2021/08/28 06:14:16;;;;;;;17.40;13.05;;;14.00;99.90;;;;;;5051140;28;20025;-64
2021/08/28 06:16:41;;;;;;;14.50;13.00;;;14.10;99.90;;;;;;5052149;28;20029;-64
2021/08/28 06:19:07;;;;;;;15.63;13.45;;;14.20;99.90;;;;;;5052017;28;20025;-64
2021/08/28 06:21:33;;;;;;;14.93;12.18;;;14.20;99.90;;;;;;5050933;28;20029;-64
2021/08/28 06:24:00;;;;;;;14.35;12.23;;;14.30;99.90;;;;;;5052177;28;20025;-64
2021/08/28 06:26:26;;;;;;;16.77;11.05;;;14.30;99.90;;;;;;5051336;28;20059;-64
2021/08/28 06:28:51;;;;;;;16.95;12.05;;;14.30;99.90;;;;;;5051762;28;20025;-64
2021/08/28 06:31:17;;;;;;;13.75;11.10;;;14.30;99.90;;;;;;5051081;28;20059;-65
2021/08/28 06:33:43;;;;;;;13.75;11.90;;;14.40;99.90;;;;;;5051562;28;20029;-65
2021/08/28 06:36:08;;;;;;;12.57;11.05;;;14.40;99.90;;;;;;5051853;28;20029;-64
2021/08/28 06:38:34;;;;;;;13.90;10.93;;;14.40;99.90;;;;;;5051153;28;20458;-64
2021/08/28 06:41:02;;;;;;;14.73;10.70;;;14.40;99.90;;;;;;5051727;28;20041;-64
2021/08/28 06:43:28;;;;;;;16.02;11.02;;;14.40;99.90;;;;;;5050242;28;20037;-64
2021/08/28 06:45:53;;;;;;;11.52;9.35;;;14.50;99.90;;;;;;5050649;28;20375;-64
2021/08/28 06:48:19;;;;;;;12.13;10.18;;;14.50;99.90;;;;;;5049971;28;20032;-64
2021/08/28 06:50:46;;;;;;;11.75;9.32;;;14.50;99.90;;;;;;5051335;28;20032;-64
2021/08/28 06:53:12;;;;;;;9.68;7.60;;;14.50;99.90;;;;;;5044765;28;20033;-66
2021/08/28 06:55:38;;;;;;;9.95;8.90;;;14.40;99.90;;;;;;5046212;28;20163;-64
2021/08/28 06:58:03;;;;;;;9.10;8.13;;;14.50;99.90;;;;;;5051919;28;20021;-64
2021/08/28 07:00:29;;;;;;;11.10;9.93;;;14.50;99.90;;;;;;5050770;28;20530;-64
2021/08/28 07:02:54;;;;;;;11.45;9.35;;;14.50;99.90;;;;;;5050686;28;20025;-64
2021/08/28 07:05:20;;;;;;;12.77;10.00;;;14.60;99.90;;;;;;5049855;28;20128;-64
2021/08/28 07:07:46;;;;;;;11.23;9.35;;;14.70;99.90;;;;;;5048661;28;20091;-65
2021/08/28 07:10:12;;;;;;;13.43;10.73;;;14.80;99.90;;;;;;5048691;28;20041;-65
2021/08/28 07:12:38;;;;;;;12.70;9.45;;;14.90;99.90;;;;;;5048679;28;20044;-64
2021/08/28 07:15:04;;;;;;;12.43;10.32;;;15.00;99.90;;;;;;5048822;28;20111;-64
2021/08/28 07:17:30;;;;;;;14.45;11.30;;;15.00;99.90;;;;;;5048698;28;20215;-65
2021/08/28 07:19:56;;;;;;;11.23;8.73;;;15.10;99.90;;;;;;5049293;28;20489;-65
2021/08/28 07:22:21;;;;;;;13.35;8.98;;;15.20;99.90;;;;;;5048713;28;20026;-64
2021/08/28 07:24:47;;;;;;;10.60;9.50;;;15.20;99.90;;;;;;5049492;28;20033;-64
2021/08/28 07:27:12;;;;;;;11.45;9.35;;;15.30;99.90;;;;;;5048982;28;20036;-66
2021/08/28 07:29:38;;;;;;;11.82;8.55;;;15.30;99.90;;;;;;5049238;28;20025;-64
2021/08/28 07:32:04;;;;;;;9.30;8.18;;;15.40;99.90;;;;;;5048977;28;20539;-65
2021/08/28 07:34:35;;;;;;;8.23;6.70;;;15.40;99.90;;;;;;5047995;28;20452;-64
2021/08/28 07:37:02;;;;;;;7.25;5.82;;;15.60;99.90;;;;;;5047443;28;20021;-64
2021/08/28 07:39:27;;;;;;;6.45;5.85;;;15.70;99.90;;;;;;5048537;28;20032;-64
2021/08/28 07:41:53;;;;;;;7.82;6.15;;;15.90;99.90;;;;;;5049505;28;20053;-64
2021/08/28 07:44:19;;;;;;;5.95;5.35;;;16.00;99.90;;;;;;5047944;28;20031;-64
2021/08/28 07:46:45;;;;;;;7.57;5.10;;;16.00;99.90;;;;;;5034263;28;20498;-65
2021/08/28 07:49:11;;;;;;;7.40;5.72;;;16.10;99.90;;;;;;5050452;28;20037;-64
2021/08/28 07:51:37;;;;;;;6.85;4.72;;;16.00;99.90;;;;;;5049372;28;20045;-65
2021/08/28 07:54:03;;;;;;;7.10;5.88;;;15.90;99.90;;;;;;5046244;28;20021;-65
2021/08/28 07:56:29;;;;;;;7.93;5.53;;;15.80;99.90;;;;;;5050402;28;20095;-64
2021/08/28 07:58:54;;;;;;;6.65;5.80;;;15.80;99.90;;;;;;5052898;28;20462;-64
2021/08/28 08:01:20;;;;;;;6.05;5.00;;;15.70;99.90;;;;;;5051617;28;20032;-65
2021/08/28 08:03:45;;;;;;;6.80;5.28;;;15.70;99.90;;;;;;5051970;28;20025;-65
2021/08/28 08:06:11;;;;;;;6.45;5.20;;;15.80;99.90;;;;;;5051897;28;20091;-66
2021/08/28 08:08:37;;;;;;;8.02;4.18;;;16.00;99.90;;;;;;5051700;28;20044;-64
2021/08/28 08:11:02;;;;;;;4.05;3.65;;;16.10;99.90;;;;;;5049569;28;20021;-63
2021/08/28 08:13:28;;;;;;;5.53;4.43;;;16.10;99.90;;;;;;5052591;28;20079;-65
2021/08/28 08:15:53;;;;;;;5.75;5.20;;;16.30;99.90;;;;;;5052414;28;20033;-64
2021/08/28 08:18:19;;;;;;;4.30;3.85;;;16.30;99.90;;;;;;5052059;28;20024;-65
2021/08/28 08:20:45;;;;;;;4.20;3.42;;;16.30;99.90;;;;;;5052686;28;20108;-64
2021/08/28 08:23:10;;;;;;;3.88;3.40;;;16.30;99.90;;;;;;5052330;28;20017;-66
2021/08/28 08:25:36;;;;;;;3.53;2.92;;;16.30;99.90;;;;;;5052773;28;20025;-65
2021/08/28 08:28:02;;;;;;;3.97;3.08;;;16.40;99.90;;;;;;5051941;28;20112;-74
2021/08/28 08:30:27;;;;;;;6.20;3.53;;;16.40;99.90;;;;;;5051893;28;20068;-73
2021/08/28 08:32:53;;;;;;;3.45;3.15;;;16.30;99.90;;;;;;5052504;28;20108;-73
2021/08/28 08:35:19;;;;;;;5.47;2.70;;;16.30;99.90;;;;;;5050922;28;20470;-76
2021/08/28 08:37:44;;;;;;;3.33;2.95;;;16.40;99.90;;;;;;5052505;28;20040;-74
2021/08/28 08:40:11;;;;;;;3.90;2.47;;;16.60;99.90;;;;;;5051958;28;20106;-83
2021/08/28 08:42:37;;;;;;;4.38;3.05;;;16.70;99.90;;;;;;5052020;28;20037;-69
2021/08/28 08:45:06;;;;;;;4.10;2.35;;;16.90;99.90;;;;;;5052633;28;20025;-65
2021/08/28 08:47:36;;;;;;;2.97;2.55;;;17.10;99.90;;;;;;5052075;28;20098;-65
2021/08/28 08:50:03;;;;;;;3.67;2.60;;;17.10;99.90;;;;;;5050200;28;20025;-77
2021/08/28 08:52:31;;;;;;;3.40;2.45;;;17.20;99.90;;;;;;5039716;28;20029;-75
2021/08/28 08:54:58;;;;;;;4.60;2.70;;;17.10;99.90;;;;;;5049327;28;20020;-75
2021/08/28 08:57:24;;;;;;;2.83;2.63;;;16.80;99.90;;;;;;5054061;28;20063;-71
2021/08/28 08:59:49;;;;;;;3.15;2.85;;;16.50;99.90;;;;;;5053524;28;20029;-77
2021/08/28 09:02:15;;;;;;;4.35;3.08;;;16.40;99.90;;;;;;5052728;28;20501;-72
2021/08/28 09:04:41;;;;;;;10.73;3.17;;;16.40;99.90;;;;;;5052894;28;20048;-71
2021/08/28 09:07:12;;;;;;;3.47;2.72;;;16.30;99.90;;;;;;5052907;28;20028;-78
2021/08/28 09:09:38;;;;;;;5.38;2.50;;;16.30;99.90;;;;;;5053197;28;20036;-79
2021/08/28 09:12:09;;;;;;;3.13;2.50;;;16.40;99.90;;;;;;5053242;28;20048;-74
2021/08/28 09:14:34;;;;;;;3.30;2.30;;;16.50;99.90;;;;;;5052978;28;20063;-77
2021/08/28 09:17:19;;;;;;;4.13;2.92;;;16.40;99.90;;;;;;5052824;28;20530;-77
2021/08/28 09:19:46;;;;;;;3.00;2.50;;;16.40;99.90;;;;;;5053699;28;20056;-75
2021/08/28 09:22:26;;;;;;;3.50;3.20;;;16.40;99.90;;;;;;5051814;28;20485;-65
2021/08/28 09:24:55;;;;;;;3.20;2.60;;;16.40;99.90;;;;;;5052928;28;20414;-64
2021/08/28 09:27:38;;;;;;;3.97;2.75;;;16.30;99.90;;;;;;5052333;28;20064;-64
2021/08/28 09:30:26;;;;;;;4.00;2.45;;;16.10;99.90;;;;;;5051222;28;20017;-66
2021/08/28 09:33:02;;;;;;;6.82;2.90;;;16.00;99.90;;;;;;5052817;28;20025;-67
2021/08/28 09:35:40;;;;;;;20.60;7.97;;;15.90;99.90;;;;;;5051986;28;20032;-66
2021/08/28 09:38:08;;;;;;;2.00;1.80;;;15.80;99.90;;;;;;5052146;28;20466;-69
2021/08/28 09:40:36;;;;;;;3.22;1.67;;;15.70;99.90;;;;;;5036629;28;20091;-69
2021/08/28 09:43:12;;;;;;;1.77;1.60;;;15.60;99.90;;;;;;5053294;28;20042;-69
2021/08/28 09:45:38;;;;;;;4.22;1.92;;;15.70;99.90;;;;;;5051685;28;20043;-70
2021/08/28 09:48:07;;;;;;;3.22;1.90;;;15.60;99.90;;;;;;5052033;28;20029;-72
2021/08/28 09:50:41;;;;;;;3.28;1.80;;;15.60;99.90;;;;;;5051200;28;20413;-69
2021/08/28 09:53:18;;;;;;;3.15;1.52;;;15.60;99.90;;;;;;5052005;28;20079;-70
2021/08/28 09:55:44;;;;;;;3.78;2.00;;;15.60;99.90;;;;;;5052610;28;20025;-69
2021/08/28 09:58:11;;;;;;;4.35;2.85;;;15.60;99.90;;;;;;5052712;28;20021;-70
2021/08/28 10:00:45;;;;;;;2.40;2.20;;;15.60;99.90;;;;;;5051266;28;20094;-70
2021/08/28 10:03:12;;;;;;;1.80;1.70;;;15.60;99.90;;;;;;5052155;28;20064;-70
2021/08/28 10:05:39;;;;;;;2.13;1.70;;;15.60;99.90;;;;;;5052153;28;20033;-70
2021/08/28 10:08:07;;;;;;;2.35;1.60;;;15.50;99.90;;;;;;5052161;28;20454;-69
2021/08/28 10:10:35;;;;;;;2.13;1.50;;;15.50;99.90;;;;;;5050114;28;20052;-69
2021/08/28 10:13:02;;;;;;;1.80;1.50;;;15.40;99.90;;;;;;5052121;28;20039;-69
2021/08/28 10:15:30;;;;;;;2.25;1.92;;;15.30;99.90;;;;;;5051698;28;20082;-69
2021/08/28 10:17:57;;;;;;;2.58;1.90;;;15.30;99.90;;;;;;5052113;28;20037;-69
2021/08/28 10:20:24;;;;;;;4.50;2.38;;;15.20;99.90;;;;;;5051701;28;20581;-69
2021/08/28 10:22:52;;;;;;;2.72;1.90;;;15.20;99.90;;;;;;5052145;28;20100;-69
2021/08/28 10:25:21;;;;;;;2.25;1.90;;;15.10;99.90;;;;;;5051883;28;20405;-69
2021/08/28 10:27:48;;;;;;;2.30;1.65;;;15.00;99.90;;;;;;5051709;28;20080;-74
2021/08/28 10:30:16;;;;;;;2.58;1.90;;;15.00;99.90;;;;;;5051814;28;20032;-74
2021/08/28 10:32:43;;;;;;;1.75;1.25;;;15.00;99.90;;;;;;5052251;28;20104;-74
2021/08/28 10:35:09;;;;;;;3.50;1.60;;;14.90;99.90;;;;;;5052410;28;20116;-73
2021/08/28 10:37:35;;;;;;;3.78;1.58;;;14.90;99.90;;;;;;5051580;28;20041;-75
2021/08/28 10:40:05;;;;;;;1.30;1.20;;;14.90;99.90;;;;;;5048789;28;20055;-76
2021/08/28 10:42:32;;;;;;;2.30;1.50;;;14.90;99.90;;;;;;5051469;28;20115;-75
2021/08/28 10:45:00;;;;;;;3.30;1.98;;;14.90;99.90;;;;;;5052395;28;20486;-72
2021/08/28 10:47:34;;;;;;;1.83;1.73;;;15.00;99.90;;;;;;5035298;28;20037;-72
2021/08/28 10:50:04;;;;;;;2.22;1.58;;;15.10;99.90;;;;;;5050929;28;20036;-72
2021/08/28 10:52:29;;;;;;;3.20;1.80;;;15.30;99.90;;;;;;5052164;28;20029;-72
2021/08/28 10:55:03;;;;;;;1.85;1.60;;;15.60;99.90;;;;;;5051539;28;20035;-72
2021/08/28 10:57:29;;;;;;;2.33;1.65;;;15.90;99.90;;;;;;5050884;28;20029;-72
2021/08/28 11:00:18;;;;;;;1.60;1.50;;;16.10;99.90;;;;;;5051730;28;20029;-71
2021/08/28 11:02:55;;;;;;;1.38;1.20;;;16.30;99.90;;;;;;5051027;28;20037;-71
2021/08/28 11:05:31;;;;;;;1.10;1.00;;;16.40;99.90;;;;;;5050399;28;20064;-70
2021/08/28 11:08:17;;;;;;;0.70;0.70;;;16.40;99.90;;;;;;5050075;28;20467;-69
2021/08/28 11:10:43;;;;;;;3.25;0.73;;;16.60;99.90;;;;;;5051299;28;20414;-68
2021/08/28 11:13:09;;;;;;;1.35;0.88;;;16.80;99.90;;;;;;5051275;28;20447;-70
2021/08/28 11:15:35;;;;;;;1.08;0.85;;;17.20;99.90;;;;;;5050817;28;20035;-68
2021/08/28 11:18:06;;;;;;;0.80;0.80;;;17.60;99.90;;;;;;5050059;28;20458;-69
2021/08/28 11:20:39;;;;;;;1.10;0.73;;;18.00;99.80;;;;;;5050822;28;20192;-69
2021/08/28 11:23:10;;;;;;;1.50;0.80;;;18.50;98.20;;;;;;5051277;28;20025;-69
2021/08/28 11:25:38;;;;;;;0.60;0.60;;;18.80;98.30;;;;;;5050800;28;20025;-69
2021/08/28 11:28:05;;;;;;;1.88;1.17;;;19.20;94.30;;;;;;5051295;28;20078;-69
2021/08/28 11:30:45;;;;;;;3.42;1.00;;;19.40;93.50;;;;;;5051384;28;20025;-69
2021/08/28 11:33:21;;;;;;;0.68;0.57;;;19.30;93.30;;;;;;5055080;28;20025;-70
2021/08/28 11:35:50;;;;;;;0.68;0.60;;;19.20;91.60;;;;;;5054820;28;20021;-69
2021/08/28 11:38:26;;;;;;;1.37;0.73;;;19.20;91.50;;;;;;5054424;28;20064;-70
2021/08/28 11:41:01;;;;;;;0.93;0.70;;;19.30;93.00;;;;;;5054538;28;20291;-69
2021/08/28 11:43:31;;;;;;;1.95;0.80;;;19.50;91.10;;;;;;5054224;28;20094;-70
2021/08/28 11:46:03;;;;;;;0.60;0.60;;;19.50;90.30;;;;;;5054623;28;20033;-70
2021/08/28 11:48:30;;;;;;;0.73;0.70;;;19.40;88.70;;;;;;5050891;28;20095;-70
2021/08/28 11:50:56;;;;;;;3.88;0.75;;;19.40;88.60;;;;;;5054681;28;20036;-71
2021/08/28 11:53:26;;;;;;;0.88;0.82;;;19.40;89.10;;;;;;5054020;28;20033;-70
2021/08/28 11:56:02;;;;;;;0.60;0.60;;;19.20;88.50;;;;;;5054547;28;20032;-68
2021/08/28 11:58:28;;;;;;;1.05;0.65;;;18.90;90.50;;;;;;5053631;28;20040;-68
2021/08/28 12:00:53;;;;;;;0.70;0.70;;;18.90;90.60;;;;;;5054189;28;20029;-69
2021/08/28 12:03:19;;;;;;;2.80;0.85;;;18.90;90.60;;;;;;5054143;28;20033;-69
2021/08/28 12:05:45;;;;;;;0.75;0.60;;;19.10;90.40;;;;;;5054602;28;20025;-69
2021/08/28 12:08:14;;;;;;;0.70;0.70;;;19.20;90.50;;;;;;5054299;28;20374;-69
2021/08/28 12:10:44;;;;;;;1.73;0.98;;;19.30;88.30;;;;;;5053948;28;20498;-69
2021/08/28 12:13:10;;;;;;;1.00;0.80;;;19.20;89.90;;;;;;5054242;28;20033;-69
2021/08/28 12:15:36;;;;;;;0.73;0.73;;;19.10;89.30;;;;;;5053514;28;20111;-67
2021/08/28 12:18:02;;;;;;;0.70;0.70;;;18.90;89.30;;;;;;5054097;28;20120;-67
2021/08/28 12:20:31;;;;;;;1.02;0.40;;;18.90;90.20;;;;;;5053802;28;20036;-72
2021/08/28 12:23:00;;;;;;;1.30;0.53;;;18.90;90.10;;;;;;5052980;28;20025;-69
2021/08/28 12:25:26;;;;;;;1.25;0.50;;;19.10;88.50;;;;;;5053460;28;20029;-69
2021/08/28 12:27:53;;;;;;;1.30;0.60;;;19.50;84.20;;;;;;5054018;28;20037;-69
2021/08/28 12:30:20;;;;;;;1.00;0.50;;;19.80;83.70;;;;;;5053182;28;20021;-69
2021/08/28 12:32:46;;;;;;;0.32;0.32;;;20.00;81.60;;;;;;5054133;28;20112;-69
2021/08/28 12:35:12;;;;;;;0.80;0.38;;;20.20;81.30;;;;;;5053700;28;20151;-69
2021/08/28 12:37:38;;;;;;;0.63;0.40;;;20.30;79.20;;;;;;5053354;28;20056;-69
2021/08/28 12:40:14;;;;;;;0.45;0.35;;;20.40;78.40;;;;;;5053287;28;20053;-69
2021/08/28 12:42:43;;;;;;;1.40;0.40;;;20.40;77.70;;;;;;5053286;28;20037;-69